createdAt,value
2018-12-07T00:01:42.615Z,93.20
2018-12-07T00:06:45.105Z,92.66
2018-12-07T00:11:47.894Z,93.09
2018-12-07T00:16:50.359Z,92.59
2018-12-07T00:21:52.990Z,92.85
2018-12-07T00:26:56.554Z,92.50
2018-12-07T00:31:59.068Z,92.09
2018-12-07T00:37:01.479Z,91.07
2018-12-07T00:42:03.913Z,91.19
2018-12-07T00:47:06.320Z,90.89
2018-12-07T00:52:08.703Z,90.79
2018-12-07T00:57:11.123Z,91.26
2018-12-07T01:02:13.568Z,90.67
2018-12-07T01:07:15.978Z,90.89
2018-12-07T01:12:19.431Z,90.93
2018-12-07T01:17:21.865Z,90.47
2018-12-07T01:22:24.349Z,90.66
2018-12-07T01:27:26.753Z,91.52
2018-12-07T01:32:29.254Z,91.39
2018-12-07T01:37:31.654Z,91.25
2018-12-07T01:42:34.066Z,90.91
2018-12-07T01:47:41.152Z,90.52
2018-12-07T01:52:43.712Z,90.61
2018-12-07T01:57:46.090Z,90.30
2018-12-07T02:02:48.584Z,90.25
2018-12-07T02:07:51.103Z,89.96
2018-12-07T02:12:53.710Z,89.55
2018-12-07T02:17:56.107Z,90.28
2018-12-07T02:22:58.740Z,89.81
2018-12-07T02:28:01.086Z,90.40
2018-12-07T02:33:03.710Z,90.33
2018-12-07T02:38:06.086Z,89.99
2018-12-07T02:43:08.738Z,90.22
2018-12-07T02:48:11.119Z,90.26
2018-12-07T02:53:13.580Z,90.16
2018-12-07T02:58:16.420Z,89.08
2018-12-07T03:03:19.209Z,89.29
2018-12-07T03:08:21.706Z,89.78
2018-12-07T03:13:24.090Z,89.23
2018-12-07T03:18:30.546Z,88.76
2018-12-07T03:23:32.939Z,88.55
2018-12-07T03:28:35.392Z,88.01
2018-12-07T03:33:37.790Z,88.04
2018-12-07T03:38:40.427Z,88.52
2018-12-07T03:43:42.872Z,88.62
2018-12-07T03:48:45.746Z,88.46
2018-12-07T03:53:48.163Z,88.00
2018-12-07T03:58:50.573Z,88.53
2018-12-07T04:03:53.052Z,88.18
2018-12-07T04:08:56.428Z,88.00
2018-12-07T04:13:58.904Z,88.46
2018-12-07T04:19:01.323Z,88.02
2018-12-07T04:24:03.845Z,88.46
2018-12-07T04:29:08.843Z,88.87
2018-12-07T04:34:11.520Z,88.88
2018-12-07T04:39:13.967Z,89.09
2018-12-07T04:44:16.625Z,89.79
2018-12-07T04:49:19.478Z,89.78
2018-12-07T04:54:21.908Z,89.77
2018-12-07T04:59:24.361Z,90.93
2018-12-07T05:04:26.797Z,91.04
2018-12-07T05:09:29.291Z,91.88
2018-12-07T05:14:31.758Z,92.46
2018-12-07T05:19:34.163Z,93.08
2018-12-07T05:24:36.787Z,93.21
2018-12-07T05:29:39.306Z,92.92
2018-12-07T05:34:41.821Z,92.35
2018-12-07T05:39:44.310Z,92.56
2018-12-07T05:44:46.891Z,91.76
2018-12-07T05:49:49.242Z,90.74
2018-12-07T05:54:51.710Z,90.31
2018-12-07T05:59:54.237Z,91.16
2018-12-07T06:04:56.879Z,91.86
2018-12-07T06:09:59.515Z,92.08
2018-12-07T06:15:01.993Z,91.88
2018-12-07T06:20:04.666Z,91.98
2018-12-07T06:25:07.163Z,92.24
2018-12-07T06:30:09.682Z,91.94
2018-12-07T06:35:12.380Z,91.59
2018-12-07T06:40:14.837Z,91.32
2018-12-07T06:45:17.507Z,91.02
2018-12-07T06:50:19.888Z,91.48
2018-12-07T06:55:22.305Z,91.29
2018-12-07T07:00:24.771Z,90.64
2018-12-07T07:05:27.378Z,90.70
2018-12-07T07:10:29.860Z,89.64
2018-12-07T07:15:32.555Z,89.79
2018-12-07T07:20:35.248Z,89.56
2018-12-07T07:25:37.952Z,90.33
2018-12-07T07:30:41.010Z,91.01
2018-12-07T07:35:43.658Z,91.10
2018-12-07T07:40:46.086Z,90.84
2018-12-07T07:45:48.682Z,91.46
2018-12-07T07:50:51.250Z,91.79
2018-12-07T07:55:53.822Z,91.62
2018-12-07T08:00:56.234Z,91.53
2018-12-07T08:05:58.715Z,91.35
2018-12-07T08:11:01.144Z,91.60
2018-12-07T08:16:03.972Z,91.64
2018-12-07T08:21:06.500Z,91.44
2018-12-07T08:26:09.315Z,90.53
2018-12-07T08:31:12.070Z,90.21
2018-12-07T08:36:14.507Z,90.31
2018-12-07T08:41:17.276Z,90.17
2018-12-07T08:46:19.996Z,90.18
2018-12-07T08:51:23.254Z,90.04
2018-12-07T08:56:26.216Z,89.43
2018-12-07T09:01:29.206Z,89.28
2018-12-07T09:06:31.703Z,88.37
2018-12-07T09:11:34.309Z,86.28
2018-12-07T09:16:36.881Z,86.79
2018-12-07T09:21:39.610Z,86.55
2018-12-07T09:26:42.306Z,85.96
2018-12-07T09:31:45.030Z,84.45
2018-12-07T09:36:47.413Z,84.41
2018-12-07T09:41:50.027Z,83.96
2018-12-07T09:46:52.579Z,83.90
2018-12-07T09:51:54.988Z,84.63
2018-12-07T09:56:57.644Z,86.93
2018-12-07T10:02:01.359Z,88.43
2018-12-07T10:07:04.271Z,88.57
2018-12-07T10:12:06.978Z,88.07
2018-12-07T10:17:09.526Z,87.71
2018-12-07T10:22:11.923Z,87.12
2018-12-07T10:27:14.537Z,86.54
2018-12-07T10:32:16.946Z,85.75
2018-12-07T10:37:19.445Z,85.16
2018-12-07T10:42:21.813Z,83.77
2018-12-07T10:47:24.355Z,82.86
2018-12-07T10:52:26.953Z,82.58
2018-12-07T10:57:30.447Z,82.43
2018-12-07T11:04:44.925Z,83.33
2018-12-07T11:10:51.359Z,81.32
2018-12-07T11:16:00.024Z,82.02
2018-12-07T11:21:07.926Z,82.17
2018-12-07T11:26:15.935Z,82.06
2018-12-07T11:31:23.967Z,81.65
2018-12-07T11:36:26.512Z,82.25
2018-12-07T11:41:28.886Z,81.81
2018-12-07T11:46:31.407Z,82.17
2018-12-07T11:51:34.231Z,81.14
2018-12-07T11:56:36.710Z,81.72
2018-12-07T12:01:44.770Z,81.16
2018-12-07T12:06:43.819Z,81.21
2018-12-07T12:11:46.309Z,81.45
2018-12-07T12:16:49.074Z,81.19
2018-12-07T12:21:51.607Z,81.22
2018-12-07T12:26:54.061Z,80.83
2018-12-07T12:31:56.730Z,82.38
2018-12-07T12:36:59.405Z,83.52
2018-12-07T12:42:02.130Z,86.27
2018-12-07T12:47:04.693Z,87.04
2018-12-07T12:52:07.280Z,86.76
2018-12-07T12:57:09.836Z,86.87
2018-12-07T13:02:13.182Z,86.40
2018-12-07T13:07:16.083Z,86.08
2018-12-07T13:12:18.574Z,86.33
2018-12-07T13:17:21.124Z,85.76
2018-12-07T13:22:23.708Z,87.32
2018-12-07T13:27:26.363Z,86.94
2018-12-07T13:32:29.034Z,86.54
2018-12-07T13:37:31.449Z,87.05
2018-12-07T13:42:33.882Z,87.00
2018-12-07T13:47:36.447Z,86.82
2018-12-07T13:52:39.268Z,86.18
2018-12-07T13:57:41.724Z,85.16
2018-12-07T14:02:44.510Z,85.65
2018-12-07T14:07:47.209Z,84.71
2018-12-07T14:12:49.827Z,84.49
2018-12-07T14:17:52.502Z,83.44
2018-12-07T14:22:55.585Z,83.57
2018-12-07T14:27:58.169Z,83.30
2018-12-07T14:33:01.341Z,82.39
2018-12-07T14:38:03.998Z,81.50
2018-12-07T14:43:06.554Z,81.98
2018-12-07T14:48:09.256Z,82.32
2018-12-07T14:53:11.682Z,82.57
2018-12-07T14:58:14.455Z,82.13
2018-12-07T15:03:17.238Z,82.13
2018-12-07T15:08:19.778Z,80.41
2018-12-07T15:13:22.535Z,80.78
2018-12-07T15:18:25.127Z,82.61
2018-12-07T15:23:27.552Z,83.28
2018-12-07T15:28:30.484Z,85.39
2018-12-07T15:33:33.401Z,87.92
2018-12-07T15:38:36.434Z,87.90
2018-12-07T15:43:39.472Z,87.39
2018-12-07T15:48:42.298Z,86.00
2018-12-07T15:53:44.751Z,85.48
2018-12-07T15:58:47.622Z,84.43
2018-12-07T16:03:50.359Z,84.50
2018-12-07T16:08:53.151Z,85.12
2018-12-07T16:13:55.732Z,84.34
2018-12-07T16:18:58.465Z,84.35
2018-12-07T16:24:01.071Z,83.32
2018-12-07T16:29:03.899Z,83.21
2018-12-07T16:34:06.586Z,81.68
2018-12-07T16:39:09.260Z,81.00
2018-12-07T16:44:11.968Z,80.64
2018-12-07T16:49:14.708Z,79.43
2018-12-07T16:54:17.369Z,80.02
2018-12-07T16:59:20.093Z,80.60
2018-12-07T17:04:22.685Z,80.76
2018-12-07T17:09:25.275Z,81.35
2018-12-07T17:14:28.096Z,82.41
2018-12-07T17:19:30.903Z,82.89
2018-12-07T17:24:33.446Z,83.46
2018-12-07T17:29:36.515Z,84.37
2018-12-07T17:34:39.499Z,84.93
2018-12-07T17:39:42.045Z,85.98
2018-12-07T17:44:44.812Z,86.11
2018-12-07T17:49:47.337Z,87.06
2018-12-07T17:54:49.779Z,86.66
2018-12-07T17:59:52.607Z,86.38
2018-12-07T18:04:55.546Z,86.67
2018-12-07T18:09:58.290Z,86.06
2018-12-07T18:15:00.885Z,87.33
2018-12-07T18:20:04.974Z,87.36
2018-12-07T18:25:07.958Z,87.95
2018-12-07T18:30:10.562Z,88.78
2018-12-07T18:35:13.160Z,88.60
2018-12-07T18:40:15.932Z,88.60
2018-12-07T18:45:18.525Z,88.63
2018-12-07T18:50:20.967Z,88.50
2018-12-07T18:55:23.598Z,89.34
2018-12-07T19:00:26.670Z,88.77
2018-12-07T19:05:29.094Z,88.40
2018-12-07T19:10:31.693Z,89.37
2018-12-07T19:15:34.218Z,88.62
2018-12-07T19:20:36.665Z,88.24
2018-12-07T19:25:39.155Z,87.66
2018-12-07T19:30:41.948Z,87.75
2018-12-07T19:35:44.708Z,87.52
2018-12-07T19:40:47.603Z,87.52
2018-12-07T19:45:50.253Z,85.20
2018-12-07T19:50:53.067Z,83.47
2018-12-07T19:55:55.856Z,83.16
2018-12-07T20:00:58.543Z,83.62
2018-12-07T20:06:00.968Z,81.58
2018-12-07T20:11:03.763Z,80.88
2018-12-07T20:16:06.241Z,79.21
2018-12-07T20:21:08.670Z,79.16
2018-12-07T20:26:11.272Z,73.69
2018-12-07T20:31:14.049Z,73.44
2018-12-07T20:36:16.744Z,74.33
2018-12-07T20:41:19.674Z,74.80
2018-12-07T20:46:22.200Z,75.26
2018-12-07T20:51:26.283Z,75.21
2018-12-07T20:56:29.191Z,75.85
2018-12-07T21:01:32.139Z,74.22
2018-12-07T21:11:03.245Z,72.32
2018-12-07T21:21:57.581Z,72.84
2018-12-07T21:27:00.126Z,72.35
2018-12-07T21:32:07.395Z,72.47
2018-12-07T21:37:09.963Z,73.17
2018-12-07T21:42:14.098Z,72.77
2018-12-07T21:53:23.464Z,72.16
2018-12-07T21:58:26.035Z,70.55
2018-12-07T22:03:28.924Z,70.26
2018-12-07T22:08:32.323Z,69.66
2018-12-07T22:13:34.846Z,68.84
2018-12-07T22:18:37.804Z,70.16
2018-12-07T22:23:40.427Z,69.83
2018-12-07T22:28:42.907Z,70.19
2018-12-07T22:33:47.271Z,71.04
2018-12-07T22:38:51.041Z,71.65
2018-12-07T22:43:54.218Z,73.11
2018-12-07T22:48:58.642Z,74.16
2018-12-07T22:54:01.330Z,73.64
2018-12-07T22:59:06.185Z,73.95
2018-12-07T23:04:08.826Z,74.63
2018-12-07T23:09:11.328Z,74.34
2018-12-07T23:14:14.726Z,74.25
2018-12-07T23:19:17.839Z,74.00
2018-12-07T23:24:20.258Z,73.47
2018-12-07T23:29:22.958Z,74.04
2018-12-07T23:34:25.504Z,74.50
2018-12-07T23:39:27.875Z,74.77
2018-12-07T23:44:30.295Z,74.40
2018-12-07T23:49:32.759Z,74.16
2018-12-07T23:54:35.166Z,73.18
2018-12-07T23:59:37.579Z,73.96
